This is the latest recevied weather packets stored in our database for station/object EA7HQL-10. If no packets are shown the sender has not sent any weather packets the latest 10 day(s).
| Time | Temp. | Humidity | Pressure | Rain* | Wind** | Luminosity | Snow |
|---|---|---|---|---|---|---|---|
| 1777829798 | 20.56° C | 76% | 1010.4 hPa | 0 mm | - | - | - |
| 1777829558 | 20.56° C | 76% | 1010.2 hPa | 0 mm | - | - | - |
| 1777829273 | 20.56° C | 76% | 1010.3 hPa | 0 mm | - | - | - |
| 1777829018 | 20.56° C | 75% | 1010.6 hPa | 0 mm | - | - | - |
| 1777828748 | 20.56° C | 75% | 1010.4 hPa | 0 mm | - | - | - |
| 1777828468 | 20.56° C | 75% | 1010.4 hPa | 0 mm | - | - | - |
| 1777828190 | 20.56° C | 75% | 1010.6 hPa | 0 mm | - | - | - |
| 1777827928 | 21.11° C | 73% | 1010.6 hPa | 0 mm | - | - | - |
| 1777827638 | 20.56° C | 74% | 1010.6 hPa | 0 mm | - | - | - |
| 1777827383 | 20.56° C | 73% | 1010.7 hPa | 0 mm | - | - | - |
| 1777827123 | 20.56° C | 74% | 1010.4 hPa | 0 mm | - | - | - |
| 1777826828 | 21.11° C | 73% | 1010.8 hPa | 0 mm | - | - | - |
| 1777826583 | 21.67° C | 72% | 1010.7 hPa | 0 mm | - | - | - |
| 1777826293 | 21.11° C | 74% | 1010.7 hPa | 0 mm | - | - | - |
| 1777826028 | 20.56° C | 76% | 1010.7 hPa | 0 mm | - | - | - |
| 1777825728 | 20.56° C | 79% | 1010.8 hPa | 0 mm | - | - | - |
| 1777825443 | 20.56° C | 79% | 1010.3 hPa | 0 mm | - | - | - |
| 1777825173 | 20.56° C | 81% | 1010.7 hPa | 0 mm | - | - | - |
| 1777824913 | 20° C | 81% | 1010.9 hPa | 0 mm | - | - | - |
| 1777824633 | 20.56° C | 81% | 1011 hPa | 0 mm | - | - | - |
| 1777824373 | 20.56° C | 81% | 1010.8 hPa | 0 mm | - | - | - |
| 1777824103 | 20.56° C | 81% | 1010.9 hPa | 0 mm | - | - | - |
| 1777823823 | 20.56° C | 81% | 1011 hPa | 0 mm | - | - | - |
| 1777823548 | 20° C | 83% | 1011 hPa | 0 mm | - | - | - |
| 1777823263 | 20° C | 84% | 1011 hPa | 0 mm | - | - | - |
* Rain latest hour (hover to see other rain measurements)
** Current wind speed in m/s (hover to see current wind gust speed)